M I D A S
Marine Information and Data Acquisition System
Tripno 905 of the Zeeleeuw from 2005-05-26 06:19:52 to 2005-05-26 13:04:20
Back to CruiseResearch ActivitiesStationsMapUnderway DataData graphs

EquipmentUnitsComment
TimeDGPSUTC
LatitudeDGPSDM.mWGS84
LongitudeDGPSDM.mWGS84
TemperatureSBE03/SBE38deg celciusITS90
ConductivitySBE21S/mITS90
SalinitySBE21 Practical Salinity Units
ChlorophylAChelsea fluorimeterg/lCalibrated in Aceton
Missing or incorrect values are displayed as -999
Sea surface data collected by the RV Zeeleeuw from 2005-05-26 06:20:44 to 2005-05-26 13:17:14
Time Latitude Longitude Temperature Conductivity Salinity ChlorophylA
2005-05-26 06:21:49 51°13.617 2°56.04 20.4679 0.0774 0.394332 -0.882377
2005-05-26 06:22:49 51°13.633 2°55.984 20.4137 0.077504 0.394873 -0.848668
2005-05-26 06:23:49 51°13.658 2°55.9 20.589 0.0774 0.394355 -0.882377
2005-05-26 06:24:49 51°13.701 2°55.779 20.5479 0.0774 0.394361 -0.848668
2005-05-26 06:25:49 51°13.775 2°55.673 20.568 0.077504 0.394931 -0.848668
2005-05-26 06:26:49 51°13.874 2°55.637 20.6389 0.0774 0.394407 -0.848668
2005-05-26 06:27:48 51°13.935 2°55.66 20.6316 0.0774 0.394396 -0.848668
2005-05-26 06:28:49 51°13.961 2°55.565 20.4095 0.0774 0.394465 -0.814958
2005-05-26 06:29:49 51°14.058 2°55.473 20.4512 0.0774 0.394436 -0.848668
2005-05-26 06:30:48 51°14.184 2°55.371 20.4562 0.0774 0.394436 -0.848668
2005-05-26 06:31:48 51°14.308 2°55.219 20.5446 0.0774 0.394448 -0.848668
2005-05-26 06:32:49 51°14.416 2°54.985 20.2974 0.0774 0.394448 -0.882377
2005-05-26 06:33:49 51°14.55 2°54.75 20.4185 0.0774 0.394471 -0.848668
2005-05-26 06:34:49 51°14.723 2°54.524 20.3602 0.0774 0.394477 -0.848668
2005-05-26 06:35:49 51°14.905 2°54.307 20.2699 0.0774 0.394477 -0.814958
2005-05-26 06:36:48 51°15.089 2°54.121 20.302 0.0774 0.394471 -0.848668
2005-05-26 06:37:49 51°15.275 2°53.916 20.2448 0.0774 0.394482 -0.848668
2005-05-26 06:38:48 51°15.477 2°53.744 20.297 0.0774 0.394517 -0.848668
2005-05-26 06:39:48 51°15.678 2°53.552 20.2989 0.0774 0.394534 -0.882377
2005-05-26 06:40:48 51°15.879 2°53.36 20.2699 0.0774 0.394557 -0.814958
2005-05-26 06:41:49 51°16.083 2°53.179 20.3362 0.0774 0.394557 -0.848668
2005-05-26 06:42:48 51°16.29 2°53.017 20.2606 0.0774 0.39458 -0.848668
2005-05-26 06:43:49 51°16.505 2°52.858 20.2882 0.0774 0.39458 -0.814958
2005-05-26 06:44:49 51°16.717 2°52.701 20.2765 0.0774 0.394598 -0.848668
2005-05-26 06:45:49 51°16.92 2°52.546 20.225 0.0774 0.394621 -0.848668
2005-05-26 06:46:48 51°17.125 2°52.401 20.3383 0.0774 0.394627 -0.882377
2005-05-26 06:47:49 51°17.331 2°52.227 20.2778 0.0774 0.394638 -0.848668
2005-05-26 06:48:49 51°17.533 2°52.046 20.2647 0.0774 0.394638 -0.848668
2005-05-26 06:49:48 51°17.724 2°51.852 20.3062 0.0774 0.394661 -0.848668
2005-05-26 06:50:48 51°17.904 2°51.622 20.3163 0.0774 0.394679 -0.848668
2005-05-26 06:51:49 51°18.083 2°51.366 20.3337 0.0774 0.394684 -0.848668
2005-05-26 06:52:49 51°18.249 2°51.093 20.3289 0.0774 0.39469 -0.848668
2005-05-26 06:53:49 51°18.378 2°50.768 20.3127 0.0774 0.394702 -0.882377
2005-05-26 06:54:48 51°18.491 2°50.432 20.3339 0.0774 0.394713 -0.848668
2005-05-26 06:55:48 51°18.602 2°50.089 20.3174 0.0774 0.394719 -0.848668
2005-05-26 06:56:49 51°18.703 2°49.735 20.2905 0.0774 0.394725 -0.848668
2005-05-26 06:57:49 51°18.799 2°49.383 20.2772 0.0774 0.394748 -0.848668
2005-05-26 06:58:49 51°18.897 2°49.022 20.2649 0.0774 0.394759 -0.848668
2005-05-26 06:59:49 51°18.997 2°48.659 20.3202 0.0774 0.394777 -0.848668
2005-05-26 07:00:48 51°19.091 2°48.302 20.296 0.0774 0.394783 -0.848668
2005-05-26 07:01:49 51°19.181 2°47.94 20.2802 0.0774 0.394806 -0.848668
2005-05-26 07:02:49 51°19.261 2°47.572 20.312 0.0774 0.394811 -0.882377
2005-05-26 07:03:49 51°19.342 2°47.203 20.3227 0.0774 0.394829 -0.848668
2005-05-26 07:04:49 51°19.426 2°46.83 20.3464 0.0774 0.39484 -0.848668
2005-05-26 07:05:49 51°19.496 2°46.455 20.312 0.077296 0.394304 -0.848668
2005-05-26 07:06:49 51°19.557 2°46.076 20.3397 0.077296 0.394322 -0.848668
2005-05-26 07:07:49 51°19.618 2°45.695 20.3383 0.077296 0.394339 -0.848668
2005-05-26 07:08:49 51°19.681 2°45.316 20.3223 0.077296 0.394351 -0.848668
2005-05-26 07:09:49 51°19.738 2°44.927 20.3319 0.077296 0.394362 -0.848668
2005-05-26 07:10:49 51°19.795 2°44.539 20.279 0.077296 0.394374 -0.882377
2005-05-26 07:11:49 51°19.852 2°44.154 20.3556 0.077296 0.394391 -0.848668
2005-05-26 07:12:48 51°19.911 2°43.772 20.3594 0.077296 0.394408 -0.848668
2005-05-26 07:13:48 51°19.97 2°43.392 20.4016 0.077296 0.39442 -0.882377
2005-05-26 07:14:49 51°20.033 2°43.009 20.3785 0.077296 0.394437 -0.848668
2005-05-26 07:15:48 51°20.092 2°42.633 20.3768 0.077296 0.394455 -0.882377
2005-05-26 07:16:48 51°20.146 2°42.253 20.3759 0.077296 0.394466 -0.848668
2005-05-26 07:17:48 51°20.204 2°41.87 20.3785 0.077296 0.394489 -0.814958
2005-05-26 07:18:49 51°20.263 2°41.48 20.4321 0.077296 0.394507 -0.848668
2005-05-26 07:19:48 51°20.322 2°41.096 20.3996 0.077296 0.394524 -0.848668
2005-05-26 07:20:48 51°20.381 2°40.709 20.4282 0.077296 0.394541 -0.882377
2005-05-26 07:21:49 51°20.439 2°40.317 20.4517 0.077296 0.394559 -0.814958
2005-05-26 07:22:49 51°20.488 2°39.931 20.4548 0.077296 0.394582 -0.882377
2005-05-26 07:23:49 51°20.512 2°39.531 20.4861 0.077296 0.394588 -0.882377
2005-05-26 07:24:49 51°20.537 2°39.137 20.4861 0.077296 0.394605 -0.882377
2005-05-26 07:25:49 51°20.562 2°38.737 20.4761 0.077296 0.394622 -0.848668
2005-05-26 07:26:48 51°20.585 2°38.349 20.4877 0.077296 0.39464 -0.882377
2005-05-26 07:27:49 51°20.607 2°37.951 20.5094 0.077296 0.394657 -0.882377
2005-05-26 07:28:49 51°20.629 2°37.555 20.5207 0.077296 0.394674 -0.848668
2005-05-26 07:29:49 51°20.653 2°37.161 20.5271 0.077296 0.394686 -0.848668
2005-05-26 07:30:49 51°20.676 2°36.762 20.5272 0.077296 0.394709 -0.848668
2005-05-26 07:31:49 51°20.699 2°36.365 20.55 0.077296 0.394732 -0.848668
2005-05-26 07:32:49 51°20.723 2°35.961 20.5452 0.077296 0.394738 -0.882377
2005-05-26 07:33:48 51°20.745 2°35.563 20.5252 0.077296 0.394755 -0.882377
2005-05-26 07:34:48 51°20.766 2°35.162 20.5608 0.077296 0.394778 -0.814958
2005-05-26 07:35:49 51°20.788 2°34.758 20.5902 0.077296 0.39479 -0.848668
2005-05-26 07:36:48 51°20.875 2°34.399 20.5621 0.077296 0.394813 -0.848668
2005-05-26 07:37:49 51°21.029 2°34.1 20.5517 0.077296 0.394825 -0.882377
2005-05-26 07:38:49 51°21.222 2°33.88 20.6 0.077296 0.394831 -0.848668
2005-05-26 07:39:49 51°21.431 2°33.703 20.6151 0.077296 0.394854 -0.848668
2005-05-26 07:40:48 51°21.646 2°33.565 20.6375 0.077296 0.394877 -0.848668
2005-05-26 07:41:49 51°21.867 2°33.423 20.6281 0.077296 0.394894 -0.882377
2005-05-26 07:42:49 51°22.084 2°33.268 20.6572 0.077296 0.394917 -0.848668
2005-05-26 07:43:49 51°22.281 2°33.045 20.6666 0.077296 0.394941 -0.814958
2005-05-26 07:44:49 51°22.43 2°32.736 20.6269 0.077296 0.394946 -0.848668
2005-05-26 07:45:48 51°22.544 2°32.396 20.6933 0.077296 0.394952 -0.848668
2005-05-26 07:46:49 51°22.581 2°31.998 20.6857 0.077296 0.394964 -0.848668
2005-05-26 07:47:49 51°22.603 2°31.596 20.6852 0.077296 0.394999 -0.848668
2005-05-26 07:48:48 51°22.597 2°31.194 20.6928 0.077192 0.394467 -0.848668
2005-05-26 07:49:48 51°22.589 2°30.786 20.7159 0.077296 0.395028 -0.848668
2005-05-26 07:50:48 51°22.583 2°30.376 20.7102 0.077192 0.394496 -0.848668
2005-05-26 07:51:49 51°22.58 2°29.961 20.7274 0.077192 0.394525 -0.814958
2005-05-26 07:52:49 51°22.577 2°29.547 20.7038 0.077296 0.395091 -0.848668
2005-05-26 07:53:49 51°22.573 2°29.141 20.7547 0.077296 0.395109 -0.848668
2005-05-26 07:54:49 51°22.571 2°28.733 20.7594 0.077192 0.394589 -0.848668
2005-05-26 07:55:49 51°22.569 2°28.331 20.7556 0.077192 0.394601 -0.848668
2005-05-26 07:56:49 51°22.568 2°27.927 20.756 0.077192 0.394618 -0.848668
2005-05-26 07:57:49 51°22.566 2°27.521 20.7923 0.077192 0.394635 -0.848668
2005-05-26 07:58:48 51°22.564 2°27.117 20.7771 0.077192 0.394653 -0.848668
2005-05-26 07:59:49 51°22.576 2°26.708 20.7891 0.077192 0.39467 -0.848668
2005-05-26 08:00:49 51°22.609 2°26.306 20.7303 0.077192 0.394688 -0.848668
2005-05-26 08:01:49 51°22.733 2°25.978 20.7902 0.077192 0.394722 -0.848668
2005-05-26 08:02:49 51°22.931 2°25.781 20.8256 0.077192 0.394734 -0.848668
2005-05-26 08:03:48 51°23.137 2°25.611 20.8333 0.077192 0.394746 -0.848668
2005-05-26 08:04:49 51°23.355 2°25.5 20.8188 0.077192 0.394763 -0.882377
2005-05-26 08:05:49 51°23.568 2°25.391 20.845 0.077192 0.394786 -0.882377
2005-05-26 08:06:48 51°23.778 2°25.281 20.8321 0.077192 0.394804 -0.848668
2005-05-26 08:07:48 51°23.992 2°25.261 20.8618 0.077192 0.394827 -0.882377
2005-05-26 08:08:49 51°24.21 2°25.275 20.8585 0.077192 0.394833 -0.848668
2005-05-26 08:09:49 51°24.423 2°25.284 20.8403 0.077192 0.394838 -0.814958
2005-05-26 08:10:49 51°24.635 2°25.29 20.8855 0.077192 0.394862 -0.882377
2005-05-26 08:11:49 51°24.85 2°25.288 20.903 0.077192 0.394879 -0.848668
2005-05-26 08:12:49 51°25.061 2°25.289 20.8809 0.077192 0.394891 -0.848668
2005-05-26 08:13:49 51°25.276 2°25.287 20.9148 0.077192 0.394908 -0.848668
2005-05-26 08:14:49 51°25.489 2°25.289 20.9124 0.077192 0.39492 -0.848668
2005-05-26 08:15:49 51°25.703 2°25.288 20.9501 0.077192 0.394937 -0.882377
2005-05-26 08:16:49 51°25.917 2°25.289 20.9387 0.077192 0.394949 -0.848668
2005-05-26 08:17:49 51°26.132 2°25.289 20.9561 0.077192 0.39496 -0.848668
2005-05-26 08:18:49 51°26.345 2°25.293 20.9694 0.077192 0.394972 -0.848668
2005-05-26 08:19:49 51°26.558 2°25.293 20.9631 0.077192 0.394984 -0.848668
2005-05-26 08:20:49 51°26.772 2°25.293 20.951 0.077192 0.394989 -0.848668
2005-05-26 08:21:48 51°26.98 2°25.293 21.0087 0.077088 0.394446 -0.882377
2005-05-26 08:22:49 51°27.193 2°25.295 21.0376 0.077192 0.395018 -0.848668
2005-05-26 08:23:49 51°27.403 2°25.298 20.9908 0.077192 0.395024 -0.814958
2005-05-26 08:24:49 51°27.613 2°25.3 21.0163 0.077088 0.394481 -0.848668
2005-05-26 08:25:48 51°27.821 2°25.302 21.0544 0.077088 0.394492 -0.848668
2005-05-26 08:26:49 51°28.033 2°25.304 21.0622 0.077088 0.394504 -0.882377
2005-05-26 08:27:49 51°28.241 2°25.309 21.0416 0.077088 0.394516 -0.882377
2005-05-26 08:28:49 51°28.449 2°25.316 21.0846 0.077088 0.394521 -0.814958
2005-05-26 08:29:49 51°28.658 2°25.323 21.0858 0.077088 0.394527 -0.848668
2005-05-26 08:30:48 51°28.86 2°25.359 21.0862 0.077088 0.394545 -0.882377
2005-05-26 08:31:49 51°29.067 2°25.404 21.0798 0.077088 0.39455 -0.848668
2005-05-26 08:32:48 51°29.27 2°25.45 21.1171 0.077088 0.394562 -0.848668
2005-05-26 08:33:48 51°29.475 2°25.491 21.1317 0.077088 0.394579 -0.848668
2005-05-26 08:34:49 51°29.683 2°25.533 21.144 0.077088 0.394579 -0.848668
2005-05-26 08:35:49 51°29.887 2°25.577 21.158 0.077088 0.394585 -0.848668
2005-05-26 08:36:49 51°30.095 2°25.619 21.1213 0.077088 0.394603 -0.848668
2005-05-26 08:37:49 51°30.299 2°25.658 21.1551 0.077088 0.394608 -0.848668
2005-05-26 08:38:49 51°30.503 2°25.697 21.1634 0.077088 0.394614 -0.882377
2005-05-26 08:39:49 51°30.708 2°25.729 21.1454 0.077088 0.39462 -0.848668
2005-05-26 08:40:49 51°30.914 2°25.769 21.1157 0.077088 0.394632 -0.848668
2005-05-26 08:41:49 51°31.089 2°25.916 21.1813 0.077088 0.394643 -0.848668
2005-05-26 08:42:49 51°31.26 2°26.076 21.218 0.077088 0.394649 -0.882377
2005-05-26 08:43:48 51°31.435 2°26.221 21.2147 0.077088 0.394643 -0.848668
2005-05-26 08:44:49 51°31.614 2°26.37 21.2404 0.077088 0.394655 -0.882377
2005-05-26 08:45:49 51°31.792 2°26.508 21.2359 0.077088 0.394661 -0.848668
2005-05-26 08:46:48 51°31.966 2°26.644 21.2211 0.077088 0.394666 -0.814958
2005-05-26 08:47:49 51°32.146 2°26.784 21.2375 0.077088 0.394672 -0.848668
2005-05-26 08:48:49 51°32.323 2°26.921 21.2121 0.077088 0.394678 -0.848668
2005-05-26 08:49:49 51°32.487 2°27.082 21.26 0.077088 0.39469 -0.848668
2005-05-26 08:50:49 51°32.653 2°27.242 21.2632 0.077088 0.394695 -0.848668
2005-05-26 08:51:49 51°32.823 2°27.396 21.2977 0.077088 0.394695 -0.848668
2005-05-26 08:52:49 51°32.991 2°27.549 21.2939 0.077088 0.394707 -0.882377
2005-05-26 08:53:49 51°33.16 2°27.705 21.2852 0.077088 0.394713 -0.848668
2005-05-26 08:54:49 51°33.331 2°27.86 21.3034 0.077088 0.39473 -0.848668
2005-05-26 08:55:49 51°33.5 2°28.018 21.3332 0.077088 0.39473 -0.848668
2005-05-26 08:56:48 51°33.669 2°28.174 21.288 0.077088 0.39473 -0.848668
2005-05-26 08:57:48 51°33.838 2°28.332 21.3525 0.077088 0.394742 -0.848668
2005-05-26 08:58:49 51°34.01 2°28.49 21.321 0.077088 0.394748 -0.882377
2005-05-26 08:59:49 51°34.18 2°28.649 21.3511 0.077088 0.394754 -0.848668
2005-05-26 09:00:49 51°34.349 2°28.804 21.3593 0.077088 0.394759 -0.848668
2005-05-26 09:01:49 51°34.519 2°28.964 21.3277 0.077088 0.394765 -0.882377
2005-05-26 09:02:48 51°34.687 2°29.121 21.3634 0.077088 0.394777 -0.848668
2005-05-26 09:03:49 51°34.857 2°29.283 21.3643 0.077088 0.394783 -0.848668
2005-05-26 09:04:49 51°35.025 2°29.442 21.3658 0.077088 0.394783 -0.848668
2005-05-26 09:05:49 51°35.195 2°29.599 21.3739 0.077088 0.394788 -0.814958
2005-05-26 09:06:49 51°35.363 2°29.762 21.3915 0.077088 0.3948 -0.848668
2005-05-26 09:07:48 51°35.531 2°29.922 21.4005 0.077088 0.394806 -0.848668
2005-05-26 09:08:49 51°35.702 2°30.087 21.3668 0.077088 0.394806 -0.882377
2005-05-26 09:09:49 51°35.871 2°30.25 21.3664 0.077088 0.394817 -0.882377
2005-05-26 09:10:48 51°36.04 2°30.412 21.4011 0.076984 0.394274 -0.882377
2005-05-26 09:11:48 51°36.211 2°30.579 21.406 0.077088 0.394823 -0.882377
2005-05-26 09:12:49 51°36.384 2°30.747 21.4172 0.076984 0.394279 -0.848668
2005-05-26 09:13:49 51°36.55 2°30.91 21.4304 0.077088 0.394835 -0.814958
2005-05-26 09:14:48 51°36.715 2°31.077 21.455 0.077088 0.394847 -0.848668
2005-05-26 09:15:48 51°36.881 2°31.248 21.473 0.077088 0.394847 -0.848668
2005-05-26 09:16:49 51°37.049 2°31.419 21.4553 0.076984 0.394303 -0.848668
2005-05-26 09:17:49 51°37.217 2°31.588 21.4651 0.076984 0.394308 -0.848668
2005-05-26 09:18:49 51°37.382 2°31.752 21.453 0.076984 0.39432 -0.848668
2005-05-26 09:19:49 51°37.548 2°31.923 21.4444 0.076984 0.394326 -0.848668
2005-05-26 09:20:48 51°37.71 2°32.09 21.4827 0.076984 0.394326 -0.814958
2005-05-26 09:21:49 51°37.877 2°32.263 21.4816 0.076984 0.394326 -0.882377
2005-05-26 09:22:49 51°38.044 2°32.433 21.4899 0.076984 0.394337 -0.848668
2005-05-26 09:23:49 51°38.208 2°32.605 21.5003 0.076984 0.394343 -0.848668
2005-05-26 09:24:49 51°38.375 2°32.777 21.484 0.076984 0.394343 -0.848668
2005-05-26 09:25:49 51°38.545 2°32.947 21.5245 0.076984 0.394349 -0.848668
2005-05-26 09:26:49 51°38.713 2°33.116 21.5361 0.076984 0.394355 -0.882377
2005-05-26 09:27:49 51°38.88 2°33.285 21.5337 0.076984 0.394355 -0.848668
2005-05-26 09:28:49 51°39.047 2°33.453 21.5152 0.076984 0.394372 -0.848668
2005-05-26 09:29:48 51°39.215 2°33.613 21.5422 0.076984 0.394366 -0.848668
2005-05-26 09:30:49 51°39.389 2°33.779 21.5622 0.076984 0.394372 -0.848668
2005-05-26 09:31:49 51°39.558 2°33.939 21.5639 0.076984 0.394378 -0.848668
2005-05-26 09:32:49 51°39.73 2°34.104 21.5761 0.076984 0.394384 -0.882377
2005-05-26 09:33:49 51°39.902 2°34.264 21.5241 0.076984 0.39439 -0.848668
2005-05-26 09:34:49 51°40.072 2°34.422 21.566 0.076984 0.394396 -0.882377
2005-05-26 09:35:49 51°40.244 2°34.583 21.6015 0.076984 0.394384 -0.882377
2005-05-26 09:36:48 51°40.413 2°34.739 21.5298 0.076984 0.394396 -0.848668
2005-05-26 09:37:49 51°40.535 2°34.992 21.5954 0.076984 0.394436 -0.848668
2005-05-26 09:38:48 51°40.645 2°35.252 21.5929 0.076984 0.394419 -0.882377
2005-05-26 09:39:49 51°40.758 2°35.52 21.5516 0.076984 0.394407 -0.848668
2005-05-26 09:40:49 51°40.87 2°35.776 21.6303 0.076984 0.394401 -0.848668
2005-05-26 09:41:49 51°40.978 2°36.043 21.566 0.076984 0.394407 -0.848668
2005-05-26 09:42:49 51°40.96 2°36.356 21.6086 0.076984 0.394477 -0.814958
2005-05-26 09:43:49 51°40.863 2°36.658 21.6083 0.076984 0.394419 -0.848668
2005-05-26 09:44:48 51°40.758 2°36.962 21.6277 0.076984 0.394413 -0.848668
2005-05-26 09:45:48 51°40.65 2°37.267 21.647 0.076984 0.394401 -0.882377
2005-05-26 09:46:49 51°40.54 2°37.578 21.6644 0.076984 0.394401 -0.848668
2005-05-26 09:47:50 51°40.43 2°37.892 21.6623 0.076984 0.394413 -0.848668
2005-05-26 09:48:49 51°40.324 2°38.201 21.6336 0.076984 0.394401 -0.814958
2005-05-26 09:49:50 51°40.214 2°38.513 21.6772 0.076984 0.394407 -0.848668
2005-05-26 09:50:49 51°40.098 2°38.81 21.6973 0.076984 0.394407 -0.848668
2005-05-26 09:51:50 51°39.978 2°39.116 21.6831 0.076984 0.394407 -0.882377
2005-05-26 09:52:49 51°39.859 2°39.414 21.6978 0.076984 0.394407 -0.848668
2005-05-26 09:53:48 51°39.744 2°39.709 21.6778 0.076984 0.394407 -0.848668
2005-05-26 09:54:49 51°39.628 2°40.013 21.7119 0.076984 0.394413 -0.848668
2005-05-26 09:55:49 51°39.512 2°40.316 21.7133 0.076984 0.394413 -0.848668
2005-05-26 09:56:49 51°39.396 2°40.61 21.7237 0.076984 0.394419 -0.848668
2005-05-26 09:57:48 51°39.283 2°40.905 21.7155 0.076984 0.394419 -0.882377
2005-05-26 09:58:49 51°39.166 2°41.205 21.7232 0.076984 0.394419 -0.848668
2005-05-26 09:59:49 51°39.048 2°41.489 21.7119 0.076984 0.39443 -0.848668
2005-05-26 10:00:49 51°38.935 2°41.785 21.6939 0.076984 0.39443 -0.848668
2005-05-26 10:01:49 51°38.744 2°41.965 21.7276 0.076984 0.394448 -0.882377
2005-05-26 10:02:49 51°38.497 2°41.965 21.748 0.076984 0.394442 -0.814958
2005-05-26 10:03:50 51°38.246 2°41.954 21.7662 0.076984 0.394442 -0.882377
2005-05-26 10:04:49 51°37.998 2°41.94 21.7756 0.076984 0.394442 -0.848668
2005-05-26 10:05:48 51°37.75 2°41.922 21.7994 0.076984 0.394442 -0.848668
2005-05-26 10:06:49 51°37.501 2°41.858 21.7705 0.076984 0.394442 -0.848668
2005-05-26 10:07:49 51°37.37 2°41.528 21.7772 0.076984 0.394471 -0.814958
2005-05-26 10:08:48 51°37.361 2°41.131 21.8257 0.076984 0.394454 -0.882377
2005-05-26 10:09:49 51°37.36 2°40.728 21.8262 0.076984 0.394442 -0.848668
2005-05-26 10:10:49 51°37.361 2°40.327 21.7554 0.076984 0.394436 -0.848668
2005-05-26 10:11:49 51°37.366 2°39.933 21.7921 0.076984 0.394442 -0.848668
2005-05-26 10:12:49 51°37.37 2°39.544 21.7968 0.076984 0.394442 -0.848668
2005-05-26 10:13:49 51°37.375 2°39.156 21.7773 0.076984 0.394448 -0.848668
2005-05-26 10:14:49 51°37.38 2°38.766 21.8071 0.076984 0.394454 -0.848668
2005-05-26 10:15:48 51°37.383 2°38.384 21.8 0.076984 0.394459 -0.848668
2005-05-26 10:16:49 51°37.387 2°37.989 21.8281 0.076984 0.394459 -0.848668
2005-05-26 10:17:49 51°37.392 2°37.604 21.8078 0.076984 0.394454 -0.848668
2005-05-26 10:18:48 51°37.414 2°37.23 21.8346 0.076984 0.394465 -0.848668
2005-05-26 10:19:48 51°37.441 2°36.851 21.8258 0.076984 0.394471 -0.882377
2005-05-26 10:20:49 51°37.467 2°36.466 21.8327 0.076984 0.394471 -0.848668
2005-05-26 10:21:49 51°37.49 2°36.079 21.8036 0.076984 0.394483 -0.848668
2005-05-26 10:22:49 51°37.512 2°35.696 21.8464 0.076984 0.394483 -0.848668
2005-05-26 10:23:49 51°37.535 2°35.304 21.8538 0.076984 0.394483 -0.848668
2005-05-26 10:24:49 51°37.561 2°34.916 21.8484 0.076984 0.3945 -0.848668
2005-05-26 10:25:48 51°37.589 2°34.534 21.8656 0.076984 0.394494 -0.848668
2005-05-26 10:26:48 51°37.578 2°34.147 21.8709 0.076984 0.394419 -0.848668
2005-05-26 10:27:48 51°37.412 2°33.864 21.8755 0.076984 0.394413 -0.848668
2005-05-26 10:28:49 51°37.177 2°33.715 21.8542 0.076984 0.3945 -0.848668
2005-05-26 10:29:49 51°36.944 2°33.575 21.8757 0.076984 0.394535 -0.848668
2005-05-26 10:30:49 51°36.712 2°33.437 21.8792 0.076984 0.394529 -0.848668
2005-05-26 10:31:48 51°36.482 2°33.298 21.8918 0.076984 0.394529 -0.848668
2005-05-26 10:32:48 51°36.25 2°33.156 21.9059 0.076984 0.394518 -0.848668
2005-05-26 10:33:48 51°36.017 2°33.015 21.8912 0.076984 0.394529 -0.814958
2005-05-26 10:34:48 51°35.784 2°32.874 21.9155 0.076984 0.394529 -0.814958
2005-05-26 10:35:49 51°35.549 2°32.731 21.9458 0.076984 0.394523 -0.848668
2005-05-26 10:36:49 51°35.312 2°32.601 21.9347 0.076984 0.394529 -0.848668
2005-05-26 10:37:50 51°35.076 2°32.471 21.9256 0.076984 0.394523 -0.814958
2005-05-26 10:38:49 51°34.844 2°32.344 21.9349 0.076984 0.394518 -0.848668
2005-05-26 10:39:49 51°34.61 2°32.214 21.9563 0.076984 0.394512 -0.848668
2005-05-26 10:40:48 51°34.379 2°32.092 21.9702 0.076984 0.394512 -0.848668
2005-05-26 10:41:49 51°34.139 2°31.97 21.9847 0.076984 0.394506 -0.848668
2005-05-26 10:42:49 51°33.902 2°31.853 21.9689 0.076984 0.394506 -0.848668
2005-05-26 10:43:49 51°33.666 2°31.74 21.9899 0.076984 0.3945 -0.848668
2005-05-26 10:44:48 51°33.431 2°31.626 22.005 0.076984 0.394506 -0.882377
2005-05-26 10:45:48 51°33.193 2°31.514 21.9952 0.076984 0.394494 -0.848668
2005-05-26 10:46:48 51°32.955 2°31.405 21.9918 0.076984 0.394494 -0.848668
2005-05-26 10:47:48 51°32.716 2°31.317 21.979 0.076984 0.394488 -0.848668
2005-05-26 10:48:49 51°32.468 2°31.25 22.0373 0.076984 0.394488 -0.848668
2005-05-26 10:49:49 51°32.222 2°31.212 22.0023 0.076984 0.394477 -0.848668
2005-05-26 10:50:48 51°31.98 2°31.205 22.0315 0.076984 0.394471 -0.848668
2005-05-26 10:51:50 51°31.732 2°31.252 22.0532 0.076984 0.394471 -0.882377
2005-05-26 10:52:49 51°31.51 2°31.377 22.0211 0.076984 0.394465 -0.848668
2005-05-26 10:53:48 51°31.295 2°31.532 22.0279 0.076984 0.394471 -0.848668
2005-05-26 10:54:48 51°31.091 2°31.722 22.0634 0.076984 0.394471 -0.848668
2005-05-26 10:55:48 51°30.894 2°31.929 22.054 0.076984 0.394459 -0.882377
2005-05-26 10:56:49 51°30.72 2°32.173 22.0404 0.076984 0.394465 -0.848668
2005-05-26 10:57:48 51°30.564 2°32.437 22.063 0.076984 0.394465 -0.848668
2005-05-26 10:58:49 51°30.404 2°32.703 22.0887 0.076984 0.394465 -0.882377
2005-05-26 10:59:50 51°30.243 2°32.969 22.0736 0.076984 0.394465 -0.814958
2005-05-26 11:00:49 51°30.083 2°33.224 22.0562 0.076984 0.394465 -0.882377
2005-05-26 11:01:48 51°29.917 2°33.463 22.0994 0.076984 0.394465 -0.848668
2005-05-26 11:02:50 51°29.734 2°33.695 22.0623 0.076984 0.394459 -0.848668
2005-05-26 11:03:48 51°29.569 2°33.932 22.0811 0.076984 0.394459 -0.848668
2005-05-26 11:04:50 51°29.403 2°34.201 22.103 0.076984 0.394459 -0.848668
2005-05-26 11:05:48 51°29.257 2°34.465 22.1065 0.076984 0.394471 -0.848668
2005-05-26 11:06:48 51°29.151 2°34.773 22.1255 0.076984 0.394477 -0.848668
2005-05-26 11:07:49 51°29.118 2°35.115 22.0994 0.076984 0.394471 -0.848668
2005-05-26 11:08:48 51°29.113 2°35.453 22.0814 0.076984 0.394483 -0.882377
2005-05-26 11:09:49 51°29.105 2°35.805 22.1013 0.076984 0.394494 -0.814958
2005-05-26 11:10:48 51°29.096 2°36.145 22.0713 0.076984 0.3945 -0.848668
2005-05-26 11:11:49 51°29.081 2°36.49 22.0566 0.076984 0.394494 -0.848668
2005-05-26 11:12:49 51°29.064 2°36.833 22.0871 0.076984 0.394506 -0.848668
2005-05-26 11:13:49 51°29.048 2°37.167 22.114 0.076984 0.394512 -0.848668
2005-05-26 11:14:48 51°29.033 2°37.501 22.0877 0.076984 0.394523 -0.848668
2005-05-26 11:15:49 51°28.943 2°37.815 22.1011 0.076984 0.394518 -0.848668
2005-05-26 11:16:49 51°28.757 2°38.022 22.119 0.076984 0.394523 -0.882377
2005-05-26 11:17:48 51°28.548 2°38.189 22.1174 0.076984 0.394512 -0.848668
2005-05-26 11:18:48 51°28.337 2°38.356 22.1318 0.076984 0.394512 -0.848668
2005-05-26 11:19:50 51°28.12 2°38.528 22.1381 0.076984 0.394523 -0.848668
2005-05-26 11:20:49 51°27.912 2°38.695 22.1581 0.076984 0.394541 -0.882377
2005-05-26 11:21:49 51°27.696 2°38.865 22.1531 0.076984 0.39457 -0.848668
2005-05-26 11:22:48 51°27.483 2°39.021 22.1655 0.076984 0.394611 -0.848668
2005-05-26 11:23:49 51°27.253 2°39.153 22.136 0.076984 0.394663 -0.848668
2005-05-26 11:24:50 51°27.025 2°39.278 22.1681 0.076984 0.394709 -0.882377
2005-05-26 11:25:49 51°26.799 2°39.392 22.2076 0.076984 0.394779 -0.848668
2005-05-26 11:26:50 51°26.573 2°39.496 22.1846 0.076984 0.394849 -0.848668
2005-05-26 11:27:50 51°26.354 2°39.594 22.1894 0.076984 0.394913 -0.848668
2005-05-26 11:28:49 51°26.14 2°39.689 22.2132 0.076984 0.394983 -0.882377
2005-05-26 11:29:50 51°25.917 2°39.79 22.2174 0.07688 0.394502 -0.848668
2005-05-26 11:30:49 51°25.699 2°39.89 22.225 0.07688 0.394572 -0.882377
2005-05-26 11:31:50 51°25.476 2°39.988 22.2187 0.07688 0.394648 -0.848668
2005-05-26 11:32:49 51°25.253 2°40.073 22.2154 0.07688 0.394724 -0.882377
2005-05-26 11:33:49 51°25.029 2°40.158 22.2344 0.07688 0.394805 -0.848668
2005-05-26 11:34:50 51°24.799 2°40.246 22.2332 0.076777 0.394336 -0.848668
2005-05-26 11:35:50 51°24.573 2°40.337 22.2839 0.076777 0.394423 -0.882377
2005-05-26 11:36:50 51°24.347 2°40.431 22.2368 0.076777 0.394517 -0.848668
2005-05-26 11:37:48 51°24.126 2°40.522 22.2692 0.076777 0.39461 -0.848668
2005-05-26 11:38:49 51°23.894 2°40.617 22.2207 0.076777 0.394692 -0.848668
2005-05-26 11:39:49 51°23.662 2°40.566 22.2876 0.076673 0.394257 -0.848668
2005-05-26 11:40:49 51°23.434 2°40.498 22.2959 0.076673 0.394344 -0.848668
2005-05-26 11:41:49 51°23.211 2°40.412 22.27 0.076673 0.394438 -0.882377
2005-05-26 11:42:49 51°22.979 2°40.377 22.2979 0.076673 0.394519 -0.882377
2005-05-26 11:43:49 51°22.749 2°40.345 22.3041 0.076673 0.394607 -0.848668
2005-05-26 11:44:49 51°22.565 2°40.17 22.2947 0.076569 0.39416 -0.848668
2005-05-26 11:45:50 51°22.488 2°39.812 22.3428 0.076569 0.394283 -0.848668
2005-05-26 11:46:49 51°22.408 2°39.459 22.3415 0.076569 0.394382 -0.882377
2005-05-26 11:47:49 51°22.305 2°39.119 22.3633 0.076569 0.394464 -0.848668
2005-05-26 11:48:49 51°22.167 2°38.824 22.3753 0.076569 0.394552 -0.848668
2005-05-26 11:49:49 51°21.956 2°38.697 22.3553 0.076465 0.394098 -0.848668
2005-05-26 11:50:50 51°21.725 2°38.744 22.338 0.076465 0.394192 -0.848668
2005-05-26 11:51:49 51°21.524 2°38.899 22.3675 0.076465 0.394297 -0.848668
2005-05-26 11:52:49 51°21.363 2°39.168 22.2768 0.076465 0.394374 -0.848668
2005-05-26 11:53:49 51°21.202 2°39.434 22.3054 0.076361 0.393914 -0.848668
2005-05-26 11:54:48 51°21.053 2°39.71 22.3137 0.076361 0.394007 -0.848668
2005-05-26 11:55:48 51°20.901 2°39.991 22.3473 0.076361 0.394089 -0.882377
2005-05-26 11:56:50 51°20.77 2°40.304 22.347 0.076361 0.394172 -0.848668
2005-05-26 11:57:50 51°20.659 2°40.63 22.3513 0.076361 0.394236 -0.848668
2005-05-26 11:58:48 51°20.551 2°40.948 22.3493 0.076361 0.394307 -0.848668
2005-05-26 11:59:49 51°20.438 2°41.281 22.3599 0.076361 0.394365 -0.882377
2005-05-26 12:00:49 51°20.331 2°41.613 22.3444 0.076257 0.39387 -0.848668
2005-05-26 12:01:48 51°20.231 2°41.939 22.3662 0.076257 0.393922 -0.848668
2005-05-26 12:02:48 51°20.131 2°42.268 22.3974 0.076257 0.393975 -0.848668
2005-05-26 12:03:49 51°20.041 2°42.605 22.4045 0.076257 0.394034 -0.848668
2005-05-26 12:04:49 51°19.957 2°42.939 22.4021 0.076257 0.394087 -0.848668
2005-05-26 12:05:48 51°19.874 2°43.272 22.3893 0.076257 0.394151 -0.848668
2005-05-26 12:06:50 51°19.788 2°43.614 22.4292 0.076257 0.394198 -0.882377
2005-05-26 12:07:49 51°19.706 2°43.941 22.4308 0.076257 0.394251 -0.848668
2005-05-26 12:08:50 51°19.623 2°44.284 22.4322 0.076257 0.394298 -0.848668
2005-05-26 12:09:48 51°19.543 2°44.615 22.4445 0.076257 0.394345 -0.882377
2005-05-26 12:10:49 51°19.458 2°44.96 22.435 0.076257 0.394393 -0.882377
2005-05-26 12:11:49 51°19.368 2°45.302 22.4622 0.076257 0.394428 -0.814958
2005-05-26 12:12:48 51°19.281 2°45.645 22.482 0.076257 0.394469 -0.882377
2005-05-26 12:13:50 51°19.191 2°45.998 22.4876 0.076257 0.394516 -0.848668
2005-05-26 12:14:48 51°19.108 2°46.331 22.4938 0.076257 0.394546 -0.848668
2005-05-26 12:15:48 51°19.023 2°46.672 22.5143 0.076257 0.394593 -0.848668
2005-05-26 12:16:49 51°18.936 2°47.016 22.5112 0.076257 0.394628 -0.848668
2005-05-26 12:17:48 51°18.854 2°47.358 22.5174 0.076257 0.394663 -0.848668
2005-05-26 12:18:49 51°18.769 2°47.708 22.4924 0.076257 0.394699 -0.848668
2005-05-26 12:19:50 51°18.683 2°48.057 22.5329 0.076257 0.39474 -0.848668
2005-05-26 12:20:49 51°18.599 2°48.4 22.5511 0.076257 0.394781 -0.848668
2005-05-26 12:21:48 51°18.513 2°48.749 22.5491 0.076257 0.394823 -0.848668
2005-05-26 12:22:50 51°18.425 2°49.114 22.5581 0.076257 0.394858 -0.882377
2005-05-26 12:23:50 51°18.34 2°49.469 22.5686 0.076257 0.394899 -0.848668
2005-05-26 12:24:50 51°18.253 2°49.819 22.589 0.076257 0.394935 -0.882377
2005-05-26 12:25:50 51°18.168 2°50.169 22.5626 0.076257 0.39497 -0.848668
2005-05-26 12:26:50 51°18.083 2°50.516 22.5887 0.076257 0.395006 -0.848668
2005-05-26 12:27:50 51°18 2°50.863 22.5384 0.076257 0.395041 -0.848668
2005-05-26 12:28:50 51°17.913 2°51.21 22.5862 0.076257 0.395077 -0.848668
2005-05-26 12:29:50 51°17.803 2°51.538 22.6038 0.076257 0.395112 -0.848668
2005-05-26 12:30:48 51°17.674 2°51.835 22.5899 0.076257 0.395148 -0.848668
2005-05-26 12:31:50 51°17.496 2°52.076 22.5601 0.076257 0.395189 -0.848668
2005-05-26 12:32:48 51°17.305 2°52.254 22.6028 0.076257 0.395213 -0.848668
2005-05-26 12:33:49 51°17.092 2°52.383 22.5991 0.076257 0.395248 -0.848668
2005-05-26 12:34:50 51°16.872 2°52.386 22.638 0.076257 0.395295 -0.848668
2005-05-26 12:35:50 51°16.653 2°52.382 22.6393 0.076257 0.395337 -0.882377
2005-05-26 12:36:50 51°16.434 2°52.384 22.6143 0.076257 0.39539 -0.848668
2005-05-26 12:37:49 51°16.215 2°52.392 22.6472 0.076257 0.395438 -0.848668
2005-05-26 12:38:49 51°15.997 2°52.403 22.6697 0.076257 0.395503 -0.848668
2005-05-26 12:39:50 51°15.778 2°52.42 22.6845 0.076257 0.395556 -0.848668
2005-05-26 12:40:48 51°15.567 2°52.466 22.6826 0.076257 0.395621 -0.882377
2005-05-26 12:41:48 51°15.354 2°52.511 22.7063 0.076257 0.395686 -0.848668
2005-05-26 12:42:50 51°15.135 2°52.565 22.6435 0.076153 0.395195 -0.848668
2005-05-26 12:43:48 51°15.003 2°52.669 22.7253 0.076153 0.395289 -0.848668
2005-05-26 12:44:50 51°14.961 2°52.806 22.769 0.076153 0.395343 -0.848668
2005-05-26 12:45:50 51°14.955 2°52.919 22.7487 0.076153 0.395396 -0.882377
2005-05-26 12:46:50 51°14.953 2°53.008 22.7691 0.076153 0.395467 -0.848668
2005-05-26 12:47:50 51°14.952 2°53.085 22.7279 0.076153 0.395521 -0.848668
2005-05-26 12:48:50 51°14.953 2°53.153 22.7645 0.076153 0.395568 -0.882377
2005-05-26 12:49:49 51°14.955 2°53.213 22.7654 0.076153 0.395622 -0.882377
2005-05-26 12:50:49 51°14.958 2°53.27 22.8477 0.076153 0.395675 -0.848668
2005-05-26 12:51:50 51°14.955 2°53.39 22.7866 0.076153 0.395764 -0.848668
2005-05-26 12:52:50 51°14.971 2°53.453 22.8316 0.076153 0.395741 -0.848668
2005-05-26 12:53:48 51°14.99 2°53.511 22.8278 0.076153 0.395788 -0.882377
2005-05-26 12:54:50 51°15.012 2°53.57 22.8171 0.076153 0.395824 -0.848668
2005-05-26 12:55:49 51°15.034 2°53.625 22.8141 0.076153 0.395865 -0.882377
2005-05-26 12:56:50 51°15.056 2°53.68 22.8293 0.076153 0.395901 -0.848668
2005-05-26 12:57:50 51°15.083 2°53.736 22.8077 0.076153 0.395955 -0.882377
2005-05-26 12:58:50 51°15.138 2°53.876 22.7069 0.076153 0.39605 -0.848668
2005-05-26 12:59:49 51°15.054 2°54.071 22.7635 0.076153 0.396062 -0.848668
2005-05-26 13:00:50 51°14.902 2°54.279 22.7968 0.076153 0.396098 -0.848668
2005-05-26 13:01:50 51°14.748 2°54.516 22.7632 0.076153 0.396139 -0.848668
2005-05-26 13:02:49 51°14.586 2°54.726 22.8141 0.076153 0.396163 -0.848668
2005-05-26 13:03:48 51°14.424 2°54.927 22.8154 0.076153 0.396217 -0.848668
2005-05-26 13:04:49 51°14.302 2°55.157 22.8383 0.076153 0.396259 -0.848668
2005-05-26 13:05:50 51°14.233 2°55.313 22.8585 0.076153 0.396294 -0.848668
2005-05-26 13:06:50 51°14.17 2°55.387 22.8983 0.076153 0.396366 -0.848668
2005-05-26 13:07:50 51°14.1 2°55.442 22.9153 0.076153 0.39642 -0.848668
2005-05-26 13:08:49 51°14.019 2°55.498 22.916 0.076153 0.396473 -0.882377
2005-05-26 13:09:49 51°13.948 2°55.547 22.9354 0.076153 0.396521 -0.848668
2005-05-26 13:10:50 51°13.868 2°55.607 22.9542 0.076153 0.396557 -0.848668
2005-05-26 13:11:50 51°13.777 2°55.677 22.9694 0.076153 0.396593 -0.848668
2005-05-26 13:12:50 51°13.708 2°55.778 22.9755 0.076153 0.396629 -0.882377
2005-05-26 13:13:49 51°13.671 2°55.879 22.9632 0.076153 0.396653 -0.848668
2005-05-26 13:14:48 51°13.637 2°55.971 23.0161 0.076257 0.397242 -0.882377
2005-05-26 13:15:49 51°13.611 2°56.058 22.9769 0.076153 0.396712 -0.848668
2005-05-26 13:16:49 51°13.599 2°56.104 23.0343 0.076257 0.397296 -0.848668